Cuthbert, GA (39840)

10:08 AM EST on February 07, 2016 (GMT -0500)
WOP Pasture B | | Change Station
CLOSE
Current Station
Personal Weather Station
Location: Bluffton, GA
Elevation: 325 ft
Nearby Weather Stations

Elev 325 ft 31.50 °N, 84.86 °W | Updated 19 seconds ago

Clear
Clear
43.3 °F
Feels Like 39 °F
N
6.9
Wind Variable Wind from ESE
Gusts 9.0 mph

Today
High -- | Low -- °F
--% Chance of Precip.
Yesterday
High -- | Low -- °F
Precip. -- in
Pressure 30.22 in
Visibility 10.0 miles
Clouds Clear
Windchill 39 °F
Dew Point 28 °F
Humidity 54%
Rainfall 0.00 in
Snow Depth Not available.
7:28 AM 6:18 PM
Waning Crescent, 1% visible
METAR KEUF 071458Z AUTO VRB05KT 10SM CLR 06/M04 A3021 RMK AO2 SLP231 I1000 I3/// T00611039 53014 $
Pressure 30.22 in
Visibility 10.0 miles
Clouds Clear
Windchill 39 °F
Dew Point 28 °F
Humidity 54%
Rainfall 0.00 in
Snow Depth Not available.
7:28 AM 6:18 PM
Waning Crescent, 1% visible
METAR KEUF 071458Z AUTO VRB05KT 10SM CLR 06/M04 A3021 RMK AO2 SLP231 I1000 I3/// T00611039 53014 $

10-Day Weather Forecast

Almanac

Astronomy

Feb. 07, 2016 Rise Set
Actual Time
Civil Twilight
Nautical Twilight
Astronomical Twilight
Moon
Length of Visible Light
Length of Day
Tomorrow will be .
, % of the Moon is Illuminated

Today's Extremes

State Highs State Lows

Community

WunderPhotos

Upload Photos

1,891,211 photos uploaded!

WunderBlog® & News

Nearby

Air Quality

  Air Quality AQ Index Pollutant
Not available.

Snow Depth

Station Depth Elevation

Earthquake Activity

City Distance Mag. Time & Date
Minimum magnitude displayed is 2.5.

Coastal Water Temperatures

Place Temperature

Stations

Nearby Weather Stations

Station Location Temp. Windchill Dew Point Humidity Wind Precip. Elev Updated Type
                   

Watches & Warnings

There are currently no watches in effect.